PRIVATE WETTERSTATION BILLIGHEIM-ALLFELD                       ZURCK
Wetterdaten: Freitag, 28.11.2014
Datum Zeit Temp. A. Temp. A. min Temp. A. max Feuchte A. Luftdruck Regen Wind Richtung Richtung Sonnenschein ET Solar Taupunkt Windchill Windben Empfang
28.11.2014 00:00 4,2 C 4,2 C 4,2 C 91 % 1010,1 hPa 0,0 l/m 0,0 km/h (0 Bft) N 360 0 min 0,000 mm 0 W/m 2,9 C 4,2 C 1,6 km/h (1 Bft) 100 %
28.11.2014 00:10 4,1 C 4,1 C 4,2 C 91 % 1010,1 hPa 0,0 l/m 0,0 km/h (0 Bft) NO 45 0 min 0,000 mm 0 W/m 2,8 C 4,1 C 6,4 km/h (2 Bft) 100 %
28.11.2014 00:20 4,0 C 4,0 C 4,1 C 91 % 1010,0 hPa 0,0 l/m 0,0 km/h (0 Bft) O-NO 67 0 min 0,000 mm 0 W/m 2,7 C 4,0 C 3,2 km/h (1 Bft) 100 %
28.11.2014 00:30 3,9 C 3,9 C 4,0 C 91 % 1010,0 hPa 0,0 l/m 0,0 km/h (0 Bft) NO 45 0 min 0,000 mm 0 W/m 2,6 C 3,9 C 1,6 km/h (1 Bft) 100 %
28.11.2014 00:40 3,8 C 3,8 C 3,9 C 91 % 1010,0 hPa 0,0 l/m 0,0 km/h (0 Bft) NO 45 0 min 0,000 mm 0 W/m 2,5 C 3,8 C 6,4 km/h (2 Bft) 100 %
28.11.2014 00:50 3,7 C 3,7 C 3,8 C 91 % 1010,0 hPa 0,0 l/m 0,0 km/h (0 Bft) N 0 0 min 0,000 mm 0 W/m 2,4 C 3,7 C 0,0 km/h (0 Bft) 100 %
28.11.2014 01:00 3,6 C 3,6 C 3,7 C 91 % 1010,1 hPa 0,0 l/m 0,0 km/h (0 Bft) N 0 0 min 0,000 mm 0 W/m 2,3 C 3,6 C 0,0 km/h (0 Bft) 100 %
28.11.2014 01:10 3,5 C 3,5 C 3,6 C 91 % 1010,0 hPa 0,0 l/m 1,6 km/h (1 Bft) N-NO 22 0 min 0,000 mm 0 W/m 2,2 C 3,5 C 4,8 km/h (1 Bft) 100 %
28.11.2014 01:20 3,5 C 3,5 C 3,5 C 91 % 1010,1 hPa 0,0 l/m 0,0 km/h (0 Bft) N-NW 337 0 min 0,000 mm 0 W/m 2,2 C 3,5 C 3,2 km/h (1 Bft) 91 %
28.11.2014 01:30 3,4 C 3,4 C 3,5 C 91 % 1010,1 hPa 0,0 l/m 0,0 km/h (0 Bft) W 270 0 min 0,000 mm 0 W/m 2,1 C 3,4 C 1,6 km/h (1 Bft) 100 %
28.11.2014 01:40 3,4 C 3,4 C 3,4 C 91 % 1010,1 hPa 0,0 l/m 0,0 km/h (0 Bft) N-NO 22 0 min 0,000 mm 0 W/m 2,1 C 3,4 C 4,8 km/h (1 Bft) 100 %
28.11.2014 01:50 3,4 C 3,4 C 3,4 C 91 % 1010,1 hPa 0,0 l/m 0,0 km/h (0 Bft) N-NW 337 0 min 0,000 mm 0 W/m 2,1 C 3,4 C 6,4 km/h (2 Bft) 100 %
28.11.2014 02:00 3,3 C 3,3 C 3,4 C 91 % 1010,0 hPa 0,0 l/m 1,6 km/h (1 Bft) O-NO 67 0 min 0,000 mm 0 W/m 2,0 C 3,3 C 6,4 km/h (2 Bft) 100 %
28.11.2014 02:10 3,2 C 3,2 C 3,3 C 91 % 1010,0 hPa 0,0 l/m 1,6 km/h (1 Bft) O 90 0 min 0,000 mm 0 W/m 1,9 C 3,2 C 9,7 km/h (2 Bft) 100 %
28.11.2014 02:20 3,1 C 3,1 C 3,2 C 91 % 1010,0 hPa 0,0 l/m 1,6 km/h (1 Bft) O 90 0 min 0,000 mm 0 W/m 1,8 C 3,1 C 11,3 km/h (2 Bft) 100 %
28.11.2014 02:30 2,9 C 2,9 C 3,1 C 91 % 1010,0 hPa 0,0 l/m 1,6 km/h (1 Bft) NO 45 0 min 0,000 mm 0 W/m 1,6 C 2,9 C 8,0 km/h (2 Bft) 100 %
28.11.2014 02:40 2,9 C 2,8 C 2,9 C 91 % 1009,9 hPa 0,0 l/m 0,0 km/h (0 Bft) NO 45 0 min 0,000 mm 0 W/m 1,6 C 2,9 C 8,0 km/h (2 Bft) 99 %
28.11.2014 02:50 2,7 C 2,7 C 2,9 C 91 % 1009,8 hPa 0,0 l/m 1,6 km/h (1 Bft) NO 45 0 min 0,000 mm 0 W/m 1,4 C 2,7 C 6,4 km/h (2 Bft) 100 %
28.11.2014 03:00 2,6 C 2,6 C 2,7 C 91 % 1010,1 hPa 0,0 l/m 0,0 km/h (0 Bft) NO 45 0 min 0,000 mm 0 W/m 1,3 C 2,6 C 6,4 km/h (2 Bft) 91 %
28.11.2014 03:10 2,5 C 2,5 C 2,6 C 91 % 1010,1 hPa 0,0 l/m 0,0 km/h (0 Bft) N-NO 22 0 min 0,000 mm 0 W/m 1,2 C 2,5 C 4,8 km/h (1 Bft) 100 %
28.11.2014 03:20 2,4 C 2,4 C 2,5 C 91 % 1010,1 hPa 0,0 l/m 0,0 km/h (0 Bft) W 270 0 min 0,000 mm 0 W/m 1,1 C 2,4 C 3,2 km/h (1 Bft) 99 %
28.11.2014 03:30 2,5 C 2,4 C 2,5 C 92 % 1010,0 hPa 0,0 l/m 0,0 km/h (0 Bft) NO 45 0 min 0,000 mm 0 W/m 1,3 C 2,5 C 4,8 km/h (1 Bft) 100 %
28.11.2014 03:40 2,6 C 2,4 C 2,6 C 92 % 1010,4 hPa 0,0 l/m 0,0 km/h (0 Bft) NO 45 0 min 0,000 mm 0 W/m 1,4 C 2,6 C 1,6 km/h (1 Bft) 100 %
28.11.2014 03:50 2,7 C 2,6 C 2,7 C 92 % 1010,5 hPa 0,0 l/m 0,0 km/h (0 Bft) W-NW 292 0 min 0,000 mm 0 W/m 1,5 C 2,7 C 3,2 km/h (1 Bft) 100 %
28.11.2014 04:00 2,8 C 2,7 C 2,8 C 92 % 1010,3 hPa 0,0 l/m 0,0 km/h (0 Bft) O-NO 67 0 min 0,000 mm 0 W/m 1,6 C 2,8 C 4,8 km/h (1 Bft) 100 %
28.11.2014 04:10 2,8 C 2,8 C 2,8 C 91 % 1010,3 hPa 0,0 l/m 0,0 km/h (0 Bft) O-NO 67 0 min 0,000 mm 0 W/m 1,5 C 2,8 C 3,2 km/h (1 Bft) 100 %
28.11.2014 04:20 2,9 C 2,8 C 2,9 C 91 % 1010,3 hPa 0,0 l/m 0,0 km/h (0 Bft) O-NO 67 0 min 0,000 mm 0 W/m 1,6 C 2,9 C 3,2 km/h (1 Bft) 100 %
28.11.2014 04:30 2,9 C 2,9 C 2,9 C 91 % 1010,1 hPa 0,0 l/m 0,0 km/h (0 Bft) O-SO 112 0 min 0,000 mm 0 W/m 1,6 C 2,9 C 1,6 km/h (1 Bft) 100 %
28.11.2014 04:40 2,9 C 2,9 C 2,9 C 91 % 1010,2 hPa 0,0 l/m 0,0 km/h (0 Bft) O-SO 112 0 min 0,000 mm 0 W/m 1,6 C 2,9 C 4,8 km/h (1 Bft) 100 %
28.11.2014 04:50 2,9 C 2,9 C 2,9 C 91 % 1010,2 hPa 0,0 l/m 0,0 km/h (0 Bft) SO 135 0 min 0,000 mm 0 W/m 1,6 C 2,9 C 1,6 km/h (1 Bft) 100 %
28.11.2014 05:00 2,9 C 2,9 C 2,9 C 91 % 1010,2 hPa 0,0 l/m 1,6 km/h (1 Bft) O-NO 67 0 min 0,000 mm 0 W/m 1,6 C 2,9 C 8,0 km/h (2 Bft) 100 %
28.11.2014 05:10 2,9 C 2,9 C 2,9 C 91 % 1010,0 hPa 0,0 l/m 1,6 km/h (1 Bft) O 90 0 min 0,000 mm 0 W/m 1,6 C 2,9 C 11,3 km/h (2 Bft) 100 %
28.11.2014 05:20 2,9 C 2,8 C 2,9 C 91 % 1010,2 hPa 0,0 l/m 1,6 km/h (1 Bft) O 90 0 min 0,000 mm 0 W/m 1,6 C 2,9 C 8,0 km/h (2 Bft) 100 %
28.11.2014 05:30 2,9 C 2,8 C 2,9 C 91 % 1010,2 hPa 0,0 l/m 1,6 km/h (1 Bft) O 90 0 min 0,000 mm 0 W/m 1,6 C 2,9 C 6,4 km/h (2 Bft) 100 %
28.11.2014 05:40 2,8 C 2,8 C 2,9 C 91 % 1010,2 hPa 0,0 l/m 0,0 km/h (0 Bft) O-NO 67 0 min 0,000 mm 0 W/m 1,5 C 2,8 C 14,5 km/h (3 Bft) 100 %
28.11.2014 05:50 2,8 C 2,8 C 2,8 C 91 % 1010,4 hPa 0,0 l/m 0,0 km/h (0 Bft) S-SO 157 0 min 0,000 mm 0 W/m 1,5 C 2,8 C 3,2 km/h (1 Bft) 100 %
28.11.2014 06:00 2,8 C 2,8 C 2,8 C 91 % 1010,2 hPa 0,0 l/m 0,0 km/h (0 Bft) O-SO 112 0 min 0,000 mm 0 W/m 1,5 C 2,8 C 8,0 km/h (2 Bft) 100 %
28.11.2014 06:10 2,8 C 2,8 C 2,8 C 91 % 1010,3 hPa 0,0 l/m 1,6 km/h (1 Bft) SO 135 0 min 0,000 mm 0 W/m 1,5 C 2,8 C 8,0 km/h (2 Bft) 100 %
28.11.2014 06:20 2,7 C 2,7 C 2,8 C 91 % 1010,3 hPa 0,0 l/m 1,6 km/h (1 Bft) NO 45 0 min 0,000 mm 0 W/m 1,4 C 2,7 C 8,0 km/h (2 Bft) 90 %
28.11.2014 06:30 2,7 C 2,7 C 2,7 C 90 % 1010,1 hPa 0,0 l/m 1,6 km/h (1 Bft) NO 45 0 min 0,000 mm 0 W/m 1,2 C 2,7 C 9,7 km/h (2 Bft) 100 %
28.11.2014 06:40 2,6 C 2,6 C 2,7 C 90 % 1010,3 hPa 0,0 l/m 0,0 km/h (0 Bft) O 90 0 min 0,000 mm 0 W/m 1,1 C 2,6 C 6,4 km/h (2 Bft) 100 %
28.11.2014 06:50 2,6 C 2,6 C 2,6 C 90 % 1010,3 hPa 0,0 l/m 1,6 km/h (1 Bft) NO 45 0 min 0,000 mm 0 W/m 1,1 C 2,6 C 11,3 km/h (2 Bft) 100 %
28.11.2014 07:00 2,6 C 2,6 C 2,6 C 90 % 1010,3 hPa 0,0 l/m 0,0 km/h (0 Bft) N-NO 22 0 min 0,000 mm 0 W/m 1,1 C 2,6 C 8,0 km/h (2 Bft) 99 %
28.11.2014 07:10 2,4 C 2,4 C 2,6 C 89 % 1010,4 hPa 0,0 l/m 1,6 km/h (1 Bft) O 90 0 min 0,000 mm 0 W/m 0,8 C 2,4 C 9,7 km/h (2 Bft) 100 %
28.11.2014 07:20 2,4 C 2,4 C 2,4 C 90 % 1010,6 hPa 0,0 l/m 1,6 km/h (1 Bft) NO 45 0 min 0,000 mm 0 W/m 0,9 C 2,4 C 9,7 km/h (2 Bft) 100 %
28.11.2014 07:30 2,3 C 2,3 C 2,4 C 90 % 1010,5 hPa 0,0 l/m 1,6 km/h (1 Bft) NO 45 0 min 0,000 mm 0 W/m 0,8 C 2,3 C 9,7 km/h (2 Bft) 100 %
28.11.2014 07:40 2,3 C 2,3 C 2,3 C 90 % 1010,7 hPa 0,0 l/m 1,6 km/h (1 Bft) O-SO 112 0 min 0,000 mm 0 W/m 0,8 C 2,3 C 4,8 km/h (1 Bft) 100 %
28.11.2014 07:50 2,2 C 2,2 C 2,3 C 90 % 1010,8 hPa 0,0 l/m 0,0 km/h (0 Bft) N 360 0 min 0,000 mm 0 W/m 0,7 C 2,2 C 6,4 km/h (2 Bft) 100 %
28.11.2014 08:00 2,2 C 2,2 C 2,2 C 90 % 1011,0 hPa 0,0 l/m 1,6 km/h (1 Bft) SO 135 0 min 0,000 mm 0 W/m 0,7 C 2,2 C 9,7 km/h (2 Bft) 91 %
28.11.2014 08:10 2,3 C 2,2 C 2,3 C 90 % 1010,9 hPa 0,0 l/m 1,6 km/h (1 Bft) O-NO 67 0 min 0,000 mm 0 W/m 0,8 C 2,3 C 6,4 km/h (2 Bft) 100 %
28.11.2014 08:20 2,3 C 2,2 C 2,3 C 90 % 1011,0 hPa 0,0 l/m 1,6 km/h (1 Bft) NO 45 0 min 0,000 mm 0 W/m 0,8 C 2,3 C 9,7 km/h (2 Bft) 100 %
28.11.2014 08:30 2,3 C 2,3 C 2,3 C 90 % 1010,9 hPa 0,0 l/m 0,0 km/h (0 Bft) O-SO 112 0 min 0,000 mm 5 W/m 0,8 C 2,3 C 6,4 km/h (2 Bft) 100 %
28.11.2014 08:40 2,3 C 2,3 C 2,3 C 90 % 1010,9 hPa 0,0 l/m 3,2 km/h (1 Bft) O-SO 112 0 min 0,000 mm 9 W/m 0,8 C 2,3 C 14,5 km/h (3 Bft) 100 %
28.11.2014 08:50 2,3 C 2,3 C 2,3 C 90 % 1011,0 hPa 0,0 l/m 1,6 km/h (1 Bft) O 90 0 min 0,000 mm 21 W/m 0,8 C 2,3 C 8,0 km/h (2 Bft) 100 %
28.11.2014 09:00 2,4 C 2,3 C 2,4 C 90 % 1011,0 hPa 0,0 l/m 1,6 km/h (1 Bft) O-SO 112 0 min 0,000 mm 28 W/m 0,9 C 2,4 C 11,3 km/h (2 Bft) 100 %
28.11.2014 09:10 2,5 C 2,4 C 2,5 C 90 % 1011,0 hPa 0,0 l/m 1,6 km/h (1 Bft) O 90 0 min 0,000 mm 33 W/m 1,0 C 2,5 C 9,7 km/h (2 Bft) 100 %
28.11.2014 09:20 2,6 C 2,5 C 2,6 C 91 % 1011,0 hPa 0,0 l/m 3,2 km/h (1 Bft) O-NO 67 0 min 0,000 mm 37 W/m 1,3 C 2,6 C 16,1 km/h (3 Bft) 100 %
28.11.2014 09:30 2,6 C 2,6 C 2,6 C 90 % 1011,1 hPa 0,0 l/m 3,2 km/h (1 Bft) O 90 0 min 0,000 mm 40 W/m 1,1 C 2,6 C 16,1 km/h (3 Bft) 100 %
28.11.2014 09:40 2,6 C 2,6 C 2,7 C 90 % 1011,1 hPa 0,0 l/m 1,6 km/h (1 Bft) O-SO 112 0 min 0,000 mm 42 W/m 1,1 C 2,6 C 14,5 km/h (3 Bft) 100 %
28.11.2014 09:50 2,7 C 2,6 C 2,7 C 90 % 1011,2 hPa 0,0 l/m 3,2 km/h (1 Bft) O 90 0 min 0,000 mm 44 W/m 1,2 C 2,7 C 14,5 km/h (3 Bft) 89 %
28.11.2014 10:00 2,7 C 2,7 C 2,7 C 90 % 1011,5 hPa 0,0 l/m 1,6 km/h (1 Bft) O 90 0 min 0,025 mm 42 W/m 1,2 C 2,7 C 9,7 km/h (2 Bft) 100 %
28.11.2014 10:10 2,7 C 2,7 C 2,8 C 90 % 1011,5 hPa 0,0 l/m 2,1 km/h (1 Bft) N-NO 24 0 min 0,000 mm 51 W/m 1,2 C 2,7 C 9,7 km/h (2 Bft) 89 %
28.11.2014 10:20 2,8 C 2,7 C 2,8 C 90 % 1011,3 hPa 0,0 l/m 1,6 km/h (1 Bft) O-SO 117 0 min 0,000 mm 56 W/m 1,3 C 2,8 C 8,0 km/h (2 Bft) 100 %
28.11.2014 10:30 2,8 C 2,8 C 2,8 C 90 % 1011,3 hPa 0,0 l/m 1,1 km/h (1 Bft) N-NW 335 0 min 0,000 mm 63 W/m 1,3 C 2,8 C 9,7 km/h (2 Bft) 100 %
28.11.2014 10:40 2,9 C 2,8 C 2,9 C 90 % 1011,4 hPa 0,0 l/m 1,2 km/h (1 Bft) SW 224 0 min 0,000 mm 67 W/m 1,4 C 2,9 C 11,3 km/h (2 Bft) 100 %
28.11.2014 10:50 3,0 C 2,9 C 3,0 C 90 % 1011,4 hPa 0,0 l/m 1,9 km/h (1 Bft) O 100 0 min 0,000 mm 69 W/m 1,5 C 3,0 C 9,7 km/h (2 Bft) 100 %
28.11.2014 11:00 3,1 C 3,0 C 3,1 C 90 % 1011,2 hPa 0,0 l/m 1,8 km/h (1 Bft) NO 55 0 min 0,026 mm 79 W/m 1,6 C 3,1 C 8,0 km/h (2 Bft) 100 %
28.11.2014 11:10 3,2 C 3,1 C 3,2 C 90 % 1011,4 hPa 0,0 l/m 1,7 km/h (1 Bft) N-NO 25 0 min 0,000 mm 84 W/m 1,7 C 3,2 C 11,3 km/h (2 Bft) 100 %
28.11.2014 11:20 3,3 C 3,2 C 3,3 C 90 % 1011,4 hPa 0,0 l/m 0,4 km/h (0 Bft) O 90 0 min 0,000 mm 83 W/m 1,8 C 3,3 C 8,0 km/h (2 Bft) 99 %
28.11.2014 11:30 3,4 C 3,3 C 3,4 C 90 % 1011,3 hPa 0,0 l/m 0,4 km/h (0 Bft) O 92 0 min 0,000 mm 72 W/m 1,9 C 3,4 C 4,8 km/h (1 Bft) 99 %
28.11.2014 11:40 3,6 C 3,4 C 3,6 C 90 % 1011,2 hPa 0,0 l/m 2,3 km/h (1 Bft) NO 38 0 min 0,000 mm 69 W/m 2,1 C 3,6 C 12,9 km/h (3 Bft) 100 %
28.11.2014 11:50 3,5 C 3,4 C 3,6 C 89 % 1011,2 hPa 0,0 l/m 1,4 km/h (1 Bft) O 80 0 min 0,000 mm 76 W/m 1,9 C 3,5 C 11,3 km/h (2 Bft) 100 %
28.11.2014 12:00 3,6 C 3,5 C 3,6 C 90 % 1011,2 hPa 0,0 l/m 0,2 km/h (0 Bft) O 86 0 min 0,025 mm 69 W/m 2,1 C 3,6 C 8,0 km/h (2 Bft) 100 %
28.11.2014 12:10 3,6 C 3,6 C 3,6 C 89 % 1010,9 hPa 0,0 l/m 1,6 km/h (1 Bft) NO 45 0 min 0,000 mm 83 W/m 2,0 C 3,6 C 11,3 km/h (2 Bft) 100 %
28.11.2014 12:20 3,6 C 3,6 C 3,6 C 90 % 1010,9 hPa 0,0 l/m 0,0 km/h (0 Bft) O-NO 67 0 min 0,000 mm 84 W/m 2,1 C 3,6 C 8,0 km/h (2 Bft) 100 %
28.11.2014 12:30 3,5 C 3,5 C 3,6 C 89 % 1010,9 hPa 0,0 l/m 3,2 km/h (1 Bft) O 90 0 min 0,000 mm 104 W/m 1,9 C 3,5 C 9,7 km/h (2 Bft) 100 %
28.11.2014 12:40 3,6 C 3,5 C 3,6 C 89 % 1010,9 hPa 0,0 l/m 1,6 km/h (1 Bft) O-SO 112 0 min 0,000 mm 113 W/m 2,0 C 3,6 C 14,5 km/h (3 Bft) 100 %
28.11.2014 12:50 3,8 C 3,6 C 3,8 C 90 % 1010,8 hPa 0,0 l/m 0,0 km/h (0 Bft) N-NW 337 0 min 0,000 mm 88 W/m 2,3 C 3,8 C 1,6 km/h (1 Bft) 100 %
28.11.2014 13:00 3,8 C 3,8 C 3,8 C 89 % 1010,8 hPa 0,0 l/m 1,6 km/h (1 Bft) N-NO 22 0 min 0,025 mm 79 W/m 2,2 C 3,8 C 9,7 km/h (2 Bft) 100 %
28.11.2014 13:20 3,7 C 3,7 C 3,8 C 89 % 1010,7 hPa 0,0 l/m 1,3 km/h (1 Bft) O-NO 68 0 min 0,001 mm 69 W/m 2,1 C 3,7 C 8,0 km/h (2 Bft) 100 %
28.11.2014 13:30 3,7 C 3,7 C 3,7 C 89 % 1010,6 hPa 0,0 l/m 1,6 km/h (1 Bft) O-SO 113 0 min 0,000 mm 69 W/m 2,1 C 3,7 C 9,7 km/h (2 Bft) 100 %
28.11.2014 13:40 3,7 C 3,7 C 3,7 C 89 % 1010,3 hPa 0,0 l/m 1,0 km/h (0 Bft) O 87 0 min 0,000 mm 65 W/m 2,1 C 3,7 C 8,0 km/h (2 Bft) 100 %
28.11.2014 13:50 3,7 C 3,7 C 3,8 C 88 % 1010,2 hPa 0,0 l/m 1,7 km/h (1 Bft) SO 128 0 min 0,000 mm 63 W/m 1,9 C 3,7 C 16,1 km/h (3 Bft) 100 %
28.11.2014 14:00 3,6 C 3,6 C 3,7 C 88 % 1010,4 hPa 0,0 l/m 2,7 km/h (1 Bft) NO 44 0 min 0,000 mm 53 W/m 1,8 C 3,6 C 16,1 km/h (3 Bft) 91 %
28.11.2014 14:10 3,6 C 3,6 C 3,6 C 89 % 1010,3 hPa 0,0 l/m 1,5 km/h (1 Bft) O-SO 115 0 min 0,025 mm 58 W/m 2,0 C 3,6 C 9,7 km/h (2 Bft) 100 %
28.11.2014 14:20 3,7 C 3,6 C 3,7 C 89 % 1010,3 hPa 0,0 l/m 0,3 km/h (0 Bft) S 174 0 min 0,000 mm 46 W/m 2,1 C 3,7 C 6,4 km/h (2 Bft) 100 %
28.11.2014 14:30 3,7 C 3,7 C 3,7 C 89 % 1010,2 hPa 0,0 l/m 1,9 km/h (1 Bft) O-NO 66 0 min 0,000 mm 47 W/m 2,1 C 3,7 C 17,7 km/h (3 Bft) 100 %
28.11.2014 14:40 3,7 C 3,7 C 3,7 C 89 % 1010,4 hPa 0,0 l/m 1,8 km/h (1 Bft) O-SO 116 0 min 0,000 mm 40 W/m 2,1 C 3,7 C 11,3 km/h (2 Bft) 100 %
28.11.2014 14:50 3,6 C 3,6 C 3,7 C 89 % 1010,4 hPa 0,0 l/m 2,9 km/h (1 Bft) NO 50 0 min 0,000 mm 33 W/m 2,0 C 3,6 C 14,5 km/h (3 Bft) 100 %
28.11.2014 15:00 3,6 C 3,6 C 3,6 C 89 % 1010,6 hPa 0,0 l/m 1,0 km/h (0 Bft) NO 46 0 min 0,025 mm 28 W/m 2,0 C 3,6 C 8,0 km/h (2 Bft) 100 %
28.11.2014 15:10 3,6 C 3,6 C 3,6 C 89 % 1010,4 hPa 0,0 l/m 0,8 km/h (0 Bft) NO 50 0 min 0,000 mm 26 W/m 2,0 C 3,6 C 6,4 km/h (2 Bft) 100 %
28.11.2014 15:20 3,6 C 3,6 C 3,6 C 89 % 1010,4 hPa 0,0 l/m 1,5 km/h (1 Bft) O 83 0 min 0,000 mm 25 W/m 2,0 C 3,6 C 11,3 km/h (2 Bft) 100 %
28.11.2014 15:30 3,6 C 3,6 C 3,6 C 89 % 1010,5 hPa 0,0 l/m 1,1 km/h (1 Bft) NO 54 0 min 0,000 mm 23 W/m 2,0 C 3,6 C 9,7 km/h (2 Bft) 100 %
28.11.2014 15:40 3,6 C 3,6 C 3,6 C 89 % 1010,6 hPa 0,0 l/m 1,7 km/h (1 Bft) NO 55 0 min 0,000 mm 19 W/m 2,0 C 3,6 C 9,7 km/h (2 Bft) 100 %
28.11.2014 15:50 3,6 C 3,6 C 3,6 C 89 % 1010,7 hPa 0,0 l/m 2,2 km/h (1 Bft) NO 38 0 min 0,000 mm 7 W/m 2,0 C 3,6 C 9,7 km/h (2 Bft) 100 %
28.11.2014 16:00 3,6 C 3,5 C 3,6 C 89 % 1010,6 hPa 0,0 l/m 1,2 km/h (1 Bft) O-NO 71 0 min 0,000 mm 5 W/m 2,0 C 3,6 C 17,7 km/h (3 Bft) 100 %
28.11.2014 16:10 3,6 C 3,5 C 3,6 C 90 % 1010,8 hPa 0,0 l/m 2,1 km/h (1 Bft) NO 41 0 min 0,000 mm 0 W/m 2,1 C 3,6 C 8,0 km/h (2 Bft) 100 %
28.11.2014 16:20 3,5 C 3,5 C 3,6 C 90 % 1010,8 hPa 0,0 l/m 0,7 km/h (0 Bft) NO 44 0 min 0,000 mm 0 W/m 2,0 C 3,5 C 6,4 km/h (2 Bft) 100 %
28.11.2014 16:30 3,4 C 3,4 C 3,5 C 90 % 1011,0 hPa 0,0 l/m 1,0 km/h (0 Bft) O-NO 67 0 min 0,000 mm 0 W/m 1,9 C 3,4 C 9,7 km/h (2 Bft) 100 %
28.11.2014 16:40 3,4 C 3,4 C 3,4 C 90 % 1011,2 hPa 0,0 l/m 0,8 km/h (0 Bft) O-NO 71 0 min 0,000 mm 0 W/m 1,9 C 3,4 C 6,4 km/h (2 Bft) 100 %
28.11.2014 16:50 3,3 C 3,3 C 3,4 C 90 % 1011,4 hPa 0,0 l/m 0,8 km/h (0 Bft) N-NO 23 0 min 0,000 mm 0 W/m 1,8 C 3,3 C 14,5 km/h (3 Bft) 100 %
28.11.2014 17:00 3,2 C 3,2 C 3,3 C 90 % 1011,5 hPa 0,0 l/m 2,0 km/h (1 Bft) NO 46 0 min 0,000 mm 0 W/m 1,7 C 3,2 C 17,7 km/h (3 Bft) 100 %
28.11.2014 17:10 3,2 C 3,2 C 3,3 C 90 % 1011,6 hPa 0,0 l/m 1,3 km/h (1 Bft) SO 146 0 min 0,000 mm 0 W/m 1,7 C 3,2 C 14,5 km/h (3 Bft) 100 %
28.11.2014 17:20 3,2 C 3,2 C 3,2 C 90 % 1011,5 hPa 0,0 l/m 1,5 km/h (1 Bft) NO 51 0 min 0,000 mm 0 W/m 1,7 C 3,2 C 11,3 km/h (2 Bft) 100 %
28.11.2014 17:30 3,2 C 3,2 C 3,2 C 90 % 1011,7 hPa 0,0 l/m 1,0 km/h (0 Bft) O 79 0 min 0,000 mm 0 W/m 1,7 C 3,2 C 9,7 km/h (2 Bft) 100 %
28.11.2014 17:40 3,2 C 3,1 C 3,2 C 90 % 1011,7 hPa 0,0 l/m 0,3 km/h (0 Bft) NW 326 0 min 0,000 mm 0 W/m 1,7 C 3,2 C 4,8 km/h (1 Bft) 91 %
28.11.2014 17:50 3,2 C 3,2 C 3,2 C 90 % 1011,8 hPa 0,0 l/m 0,7 km/h (0 Bft) O-SO 122 0 min 0,000 mm 0 W/m 1,7 C 3,2 C 6,4 km/h (2 Bft) 100 %
28.11.2014 18:00 3,1 C 3,1 C 3,2 C 90 % 1011,8 hPa 0,0 l/m 0,3 km/h (0 Bft) N-NW 337 0 min 0,000 mm 0 W/m 1,6 C 3,1 C 3,2 km/h (1 Bft) 100 %
28.11.2014 18:10 3,1 C 3,1 C 3,1 C 91 % 1011,8 hPa 0,0 l/m 0,9 km/h (0 Bft) NO 53 0 min 0,000 mm 0 W/m 1,8 C 3,1 C 8,0 km/h (2 Bft) 100 %
28.11.2014 18:20 3,1 C 3,1 C 3,1 C 90 % 1012,0 hPa 0,0 l/m 1,6 km/h (1 Bft) N-NO 33 0 min 0,000 mm 0 W/m 1,6 C 3,1 C 9,7 km/h (2 Bft) 100 %
28.11.2014 18:30 3,1 C 3,1 C 3,1 C 90 % 1012,0 hPa 0,0 l/m 2,0 km/h (1 Bft) W-SW 240 0 min 0,000 mm 0 W/m 1,6 C 3,1 C 14,5 km/h (3 Bft) 100 %
28.11.2014 18:40 3,0 C 3,0 C 3,1 C 90 % 1012,2 hPa 0,0 l/m 1,4 km/h (1 Bft) NW 315 0 min 0,000 mm 0 W/m 1,5 C 3,0 C 14,5 km/h (3 Bft) 100 %
28.11.2014 18:50 3,0 C 3,0 C 3,0 C 90 % 1012,2 hPa 0,0 l/m 0,8 km/h (0 Bft) N-NO 20 0 min 0,000 mm 0 W/m 1,5 C 3,0 C 14,5 km/h (3 Bft) 100 %
28.11.2014 19:00 3,0 C 2,9 C 3,0 C 90 % 1012,2 hPa 0,0 l/m 1,6 km/h (1 Bft) SO 129 0 min 0,000 mm 0 W/m 1,5 C 3,0 C 19,3 km/h (3 Bft) 100 %
28.11.2014 19:10 2,9 C 2,9 C 3,0 C 90 % 1012,4 hPa 0,0 l/m 1,2 km/h (1 Bft) O 80 0 min 0,000 mm 0 W/m 1,4 C 2,9 C 8,0 km/h (2 Bft) 100 %
28.11.2014 19:20 2,9 C 2,8 C 2,9 C 90 % 1012,4 hPa 0,0 l/m 2,7 km/h (1 Bft) NW 308 0 min 0,000 mm 0 W/m 1,4 C 2,9 C 9,7 km/h (2 Bft) 99 %
28.11.2014 19:30 2,9 C 2,8 C 2,9 C 90 % 1012,3 hPa 0,0 l/m 2,8 km/h (1 Bft) O-SO 105 0 min 0,000 mm 0 W/m 1,4 C 2,9 C 14,5 km/h (3 Bft) 100 %
28.11.2014 19:40 2,9 C 2,8 C 2,9 C 90 % 1012,3 hPa 0,0 l/m 1,9 km/h (1 Bft) O-SO 116 0 min 0,000 mm 0 W/m 1,4 C 2,9 C 9,7 km/h (2 Bft) 100 %
28.11.2014 19:50 2,9 C 2,9 C 2,9 C 90 % 1012,3 hPa 0,0 l/m 1,2 km/h (1 Bft) SO 140 0 min 0,000 mm 0 W/m 1,4 C 2,9 C 9,7 km/h (2 Bft) 100 %
28.11.2014 20:00 2,9 C 2,9 C 2,9 C 90 % 1012,4 hPa 0,0 l/m 1,2 km/h (1 Bft) O 79 0 min 0,000 mm 0 W/m 1,4 C 2,9 C 9,7 km/h (2 Bft) 100 %
28.11.2014 20:10 2,9 C 2,9 C 2,9 C 90 % 1012,4 hPa 0,0 l/m 2,3 km/h (1 Bft) O-SO 112 0 min 0,000 mm 0 W/m 1,4 C 2,9 C 8,0 km/h (2 Bft) 100 %
28.11.2014 20:20 2,9 C 2,9 C 2,9 C 90 % 1012,5 hPa 0,0 l/m 0,4 km/h (0 Bft) O 96 0 min 0,000 mm 0 W/m 1,4 C 2,9 C 8,0 km/h (2 Bft) 100 %
28.11.2014 20:30 2,9 C 2,9 C 2,9 C 90 % 1012,6 hPa 0,0 l/m 2,0 km/h (1 Bft) W 275 0 min 0,000 mm 0 W/m 1,4 C 2,9 C 9,7 km/h (2 Bft) 100 %
28.11.2014 20:40 2,9 C 2,9 C 2,9 C 90 % 1012,7 hPa 0,0 l/m 1,6 km/h (1 Bft) NW 304 0 min 0,000 mm 0 W/m 1,4 C 2,9 C 9,7 km/h (2 Bft) 100 %
28.11.2014 20:50 2,9 C 2,8 C 2,9 C 90 % 1012,7 hPa 0,0 l/m 1,3 km/h (1 Bft) SO 129 0 min 0,000 mm 0 W/m 1,4 C 2,9 C 14,5 km/h (3 Bft) 100 %
28.11.2014 21:00 2,9 C 2,8 C 2,9 C 90 % 1012,7 hPa 0,0 l/m 1,0 km/h (0 Bft) O 81 0 min 0,000 mm 0 W/m 1,4 C 2,9 C 9,7 km/h (2 Bft) 100 %
28.11.2014 21:10 2,8 C 2,8 C 2,9 C 90 % 1012,8 hPa 0,0 l/m 1,6 km/h (1 Bft) O-NO 67 0 min 0,000 mm 0 W/m 1,3 C 2,8 C 16,1 km/h (3 Bft) 97 %
28.11.2014 21:20 2,8 C 2,8 C 2,8 C 90 % 1013,1 hPa 0,0 l/m 1,6 km/h (1 Bft) NO 45 0 min 0,000 mm 0 W/m 1,3 C 2,8 C 14,5 km/h (3 Bft) 98 %
28.11.2014 21:30 2,8 C 2,8 C 2,8 C 90 % 1013,1 hPa 0,0 l/m 1,6 km/h (1 Bft) O 90 0 min 0,000 mm 0 W/m 1,3 C 2,8 C 8,0 km/h (2 Bft) 97 %
28.11.2014 21:40 2,8 C 2,8 C 2,8 C 90 % 1013,1 hPa 0,0 l/m 1,6 km/h (1 Bft) NO 45 0 min 0,000 mm 0 W/m 1,3 C 2,8 C 6,4 km/h (2 Bft) 98 %
28.11.2014 21:50 2,8 C 2,8 C 2,8 C 90 % 1013,1 hPa 0,0 l/m 1,6 km/h (1 Bft) NO 45 0 min 0,000 mm 0 W/m 1,3 C 2,8 C 9,7 km/h (2 Bft) 97 %
28.11.2014 22:00 2,8 C 2,8 C 2,8 C 90 % 1013,1 hPa 0,0 l/m 0,0 km/h (0 Bft) O 90 0 min 0,000 mm 0 W/m 1,3 C 2,8 C 9,7 km/h (2 Bft) 98 %
28.11.2014 22:10 2,8 C 2,8 C 2,8 C 90 % 1013,2 hPa 0,0 l/m 1,6 km/h (1 Bft) O 90 0 min 0,000 mm 0 W/m 1,3 C 2,8 C 11,3 km/h (2 Bft) 97 %
28.11.2014 22:20 2,8 C 2,8 C 2,8 C 90 % 1013,1 hPa 0,0 l/m 1,6 km/h (1 Bft) O 90 0 min 0,000 mm 0 W/m 1,3 C 2,8 C 8,0 km/h (2 Bft) 98 %
28.11.2014 22:30 2,9 C 2,8 C 2,9 C 90 % 1013,1 hPa 0,0 l/m 1,6 km/h (1 Bft) N 360 0 min 0,000 mm 0 W/m 1,4 C 2,9 C 11,3 km/h (2 Bft) 89 %
28.11.2014 22:40 2,9 C 2,8 C 2,9 C 90 % 1013,3 hPa 0,0 l/m 1,6 km/h (1 Bft) O 90 0 min 0,000 mm 0 W/m 1,4 C 2,9 C 14,5 km/h (3 Bft) 97 %
28.11.2014 22:50 2,9 C 2,9 C 2,9 C 90 % 1013,4 hPa 0,0 l/m 1,6 km/h (1 Bft) O-NO 67 0 min 0,000 mm 0 W/m 1,4 C 2,9 C 14,5 km/h (3 Bft) 98 %
28.11.2014 23:00 2,9 C 2,9 C 2,9 C 90 % 1013,4 hPa 0,0 l/m 1,6 km/h (1 Bft) NO 45 0 min 0,000 mm 0 W/m 1,4 C 2,9 C 14,5 km/h (3 Bft) 96 %
28.11.2014 23:10 2,9 C 2,9 C 2,9 C 90 % 1013,4 hPa 0,0 l/m 1,6 km/h (1 Bft) O-SO 112 0 min 0,000 mm 0 W/m 1,4 C 2,9 C 8,0 km/h (2 Bft) 98 %
28.11.2014 23:20 2,9 C 2,9 C 2,9 C 90 % 1013,4 hPa 0,0 l/m 0,0 km/h (0 Bft) O 90 0 min 0,000 mm 0 W/m 1,4 C 2,9 C 8,0 km/h (2 Bft) 97 %
28.11.2014 23:30 2,9 C 2,9 C 2,9 C 90 % 1013,2 hPa 0,0 l/m 0,0 km/h (0 Bft) N 360 0 min 0,000 mm 0 W/m 1,4 C 2,9 C 6,4 km/h (2 Bft) 98 %
28.11.2014 23:40 2,9 C 2,9 C 2,9 C 90 % 1013,3 hPa 0,0 l/m 1,6 km/h (1 Bft) O 90 0 min 0,000 mm 0 W/m 1,4 C 2,9 C 8,0 km/h (2 Bft) 98 %
28.11.2014 23:50 2,9 C 2,9 C 2,9 C 90 % 1013,4 hPa 0,0 l/m 1,6 km/h (1 Bft) O 90 0 min 0,000 mm 0 W/m 1,4 C 2,9 C 9,7 km/h (2 Bft) 97 %
_ Min-Zeit 07:50 07:50 08:00 13:50 02:50 - 00:00 - - - - - 07:50 07:50 00:50 09:50
Minimum _ 2,2 C 2,2 C 2,2 C 88 % 1009,8 hPa - 0,0 km/h (0 Bft) - - - - - 0,7 C 2,2 C 0,0 km/h (0 Bft) 89 %
_ Max-Zeit 00:00 00:00 00:00 03:30 22:50 00:00 08:40 - - 00:00 11:00 12:40 00:00 00:00 19:00 00:00
Maximum _ 4,2 C 4,2 C 4,2 C 92 % 1013,4 hPa 0,0 l/m 3,2 km/h
O-SO (1 Bft)
- - 0 min 0,026 mm 113 W/m 2,9 C 4,2 C 19,3 km/h
O-SO (3 Bft)
100 %
Durchschnitt _ 3,1 C 3,0 C 3,1 C 90 % 1011,2 hPa #0,0 l/m 1,2 km/h (1 Bft) NO - #0 min. #0,152 mm 53 W/m 1,6 C 3,1 C 9,0 km/h (2 Bft) 99 %
PRIVATE WETTERSTATION BILLIGHEIM-ALLFELD - www.neckar-odenwald-wetter.de - Holger Sonntag